createdAt,value
2022-09-10T00:00:40.916Z,15.84
2022-09-10T00:03:10.497Z,15.86
2022-09-10T00:05:43.237Z,15.85
2022-09-10T00:08:15.881Z,15.85
2022-09-10T00:10:46.714Z,15.86
2022-09-10T00:13:17.494Z,15.87
2022-09-10T00:15:48.789Z,15.88
2022-09-10T00:18:20.296Z,15.87
2022-09-10T00:20:51.235Z,15.88
2022-09-10T00:23:26.677Z,15.87
2022-09-10T00:25:56.585Z,15.85
2022-09-10T00:28:28.028Z,15.86
2022-09-10T00:30:58.070Z,15.84
2022-09-10T00:33:29.134Z,15.82
2022-09-10T00:35:58.867Z,15.85
2022-09-10T00:38:31.500Z,15.83
2022-09-10T00:41:08.177Z,15.81
2022-09-10T00:43:54.554Z,15.80
2022-09-10T00:46:38.354Z,15.79
2022-09-10T00:49:15.630Z,15.78
2022-09-10T00:51:45.396Z,15.75
2022-09-10T00:54:17.953Z,15.75
2022-09-10T00:56:48.068Z,15.73
2022-09-10T00:59:20.309Z,15.70
2022-09-10T01:01:50.577Z,15.68
2022-09-10T01:04:20.552Z,15.68
2022-09-10T01:06:52.975Z,15.70
2022-09-10T01:09:26.611Z,15.69
2022-09-10T01:12:06.986Z,15.71
2022-09-10T01:15:05.358Z,15.70
2022-09-10T01:17:41.910Z,15.70
2022-09-10T01:20:53.822Z,15.68
2022-09-10T01:23:53.697Z,15.68
2022-09-10T01:26:45.446Z,15.67
2022-09-10T01:29:22.713Z,15.67
2022-09-10T01:31:56.467Z,15.66
2022-09-10T01:34:30.314Z,15.66
2022-09-10T01:37:04.157Z,15.66
2022-09-10T01:39:37.478Z,15.64
2022-09-10T01:42:07.549Z,15.63
2022-09-10T01:44:49.026Z,15.63
2022-09-10T01:47:41.923Z,15.62
2022-09-10T01:50:22.656Z,15.62
2022-09-10T01:53:05.182Z,15.59
2022-09-10T01:55:38.853Z,15.58
2022-09-10T01:58:19.935Z,15.57
2022-09-10T02:01:05.708Z,15.56
2022-09-10T02:03:37.534Z,15.55
2022-09-10T02:06:09.463Z,15.53
2022-09-10T02:08:42.989Z,15.53
2022-09-10T02:11:14.306Z,15.52
2022-09-10T02:13:48.420Z,15.53
2022-09-10T02:16:43.777Z,15.55
2022-09-10T02:19:15.025Z,15.54
2022-09-10T02:21:44.605Z,15.56
2022-09-10T02:24:15.259Z,15.54
2022-09-10T02:26:47.265Z,15.54
2022-09-10T02:29:19.283Z,15.54
2022-09-10T02:31:51.455Z,15.53
2022-09-10T02:34:21.764Z,15.53
2022-09-10T02:36:52.404Z,15.52
2022-09-10T02:39:22.337Z,15.52
2022-09-10T02:41:53.898Z,15.51
2022-09-10T02:44:27.193Z,15.47
2022-09-10T02:46:59.428Z,15.49
2022-09-10T02:49:29.183Z,15.46
2022-09-10T02:51:58.761Z,15.46
2022-09-10T02:54:28.694Z,15.44
2022-09-10T02:56:58.542Z,15.43
2022-09-10T02:59:29.037Z,15.44
2022-09-10T03:02:02.242Z,15.44
2022-09-10T03:04:31.906Z,15.42
2022-09-10T03:07:01.552Z,15.43
2022-09-10T03:09:31.424Z,15.41
2022-09-10T03:12:01.039Z,15.40
2022-09-10T03:14:31.186Z,15.38
2022-09-10T03:17:03.870Z,15.36
2022-09-10T03:19:34.033Z,15.38
2022-09-10T03:22:03.640Z,15.36
2022-09-10T03:24:35.802Z,15.34
2022-09-10T03:27:06.092Z,15.33
2022-09-10T03:29:36.297Z,15.33
2022-09-10T03:32:08.977Z,15.30
2022-09-10T03:34:39.946Z,15.29
2022-09-10T03:37:09.694Z,15.27
2022-09-10T03:39:39.478Z,15.26
2022-09-10T03:42:09.426Z,15.26
2022-09-10T03:44:39.094Z,15.30
2022-09-10T03:47:12.345Z,15.30
2022-09-10T03:49:42.758Z,15.28
2022-09-10T03:52:13.672Z,15.29
2022-09-10T03:54:45.555Z,15.27
2022-09-10T03:57:15.556Z,15.26
2022-09-10T03:59:46.108Z,15.25
2022-09-10T04:02:18.510Z,15.22
2022-09-10T04:04:49.246Z,15.20
2022-09-10T04:07:18.765Z,15.19
2022-09-10T04:09:48.315Z,15.15
2022-09-10T04:12:17.986Z,15.18
2022-09-10T04:14:47.710Z,15.19
2022-09-10T04:17:20.929Z,15.16
2022-09-10T04:19:52.344Z,15.15
2022-09-10T04:22:23.472Z,15.16
2022-09-10T04:24:53.734Z,15.15
2022-09-10T04:27:26.631Z,15.17
2022-09-10T04:29:57.372Z,15.19
2022-09-10T04:32:30.968Z,15.17
2022-09-10T04:35:03.006Z,15.18
2022-09-10T04:37:33.608Z,15.18
2022-09-10T04:40:05.191Z,15.16
2022-09-10T04:42:39.851Z,15.15
2022-09-10T04:45:11.552Z,15.14
2022-09-10T04:47:46.031Z,15.17
2022-09-10T04:50:17.089Z,15.18
2022-09-10T04:53:07.869Z,15.18
2022-09-10T04:55:39.488Z,15.15
2022-09-10T04:58:09.498Z,15.17
2022-09-10T05:00:39.377Z,15.14
2022-09-10T05:03:13.250Z,15.16
2022-09-10T05:05:46.030Z,15.17
2022-09-10T05:08:15.883Z,15.18
2022-09-10T05:10:53.362Z,15.20
2022-09-10T05:13:24.246Z,15.19
2022-09-10T05:15:54.478Z,15.18
2022-09-10T05:18:27.590Z,15.20
2022-09-10T05:20:57.729Z,15.22
2022-09-10T05:23:27.507Z,15.24
2022-09-10T05:25:57.723Z,15.25
2022-09-10T05:28:27.530Z,15.23
2022-09-10T05:30:58.106Z,15.21
2022-09-10T05:33:32.721Z,15.20
2022-09-10T05:36:02.877Z,15.19
2022-09-10T05:38:36.063Z,15.18
2022-09-10T05:41:08.110Z,15.14
2022-09-10T05:43:37.934Z,15.13
2022-09-10T05:46:08.234Z,15.14
2022-09-10T05:48:41.911Z,15.13
2022-09-10T05:51:13.453Z,15.11
2022-09-10T05:53:44.657Z,15.10
2022-09-10T05:56:14.411Z,15.09
2022-09-10T05:58:46.826Z,15.09
2022-09-10T06:01:17.481Z,15.10
2022-09-10T06:03:51.013Z,15.11
2022-09-10T06:06:21.254Z,15.12
2022-09-10T06:08:59.839Z,15.13
2022-09-10T06:11:50.261Z,15.08
2022-09-10T06:14:20.985Z,15.11
2022-09-10T06:16:53.578Z,15.09
2022-09-10T06:19:27.043Z,15.08
2022-09-10T06:21:58.242Z,15.09
2022-09-10T06:24:29.335Z,15.10
2022-09-10T06:26:59.989Z,15.13
2022-09-10T06:29:33.092Z,15.12
2022-09-10T06:32:02.712Z,15.14
2022-09-10T06:34:35.807Z,15.14
2022-09-10T06:37:07.148Z,15.14
2022-09-10T06:39:39.539Z,15.12
2022-09-10T06:42:10.072Z,15.13
2022-09-10T06:45:12.577Z,15.15
2022-09-10T06:50:58.468Z,15.15
2022-09-10T06:53:39.914Z,15.16
2022-09-10T06:56:15.138Z,15.18
2022-09-10T06:58:45.717Z,15.20
2022-09-10T07:01:19.058Z,15.23
2022-09-10T07:03:59.617Z,15.25
2022-09-10T07:06:35.298Z,15.32
2022-09-10T07:09:12.269Z,15.36
2022-09-10T07:11:51.455Z,15.39
2022-09-10T07:14:21.507Z,15.42
2022-09-10T07:16:53.435Z,15.41
2022-09-10T07:19:26.000Z,15.44
2022-09-10T07:21:58.233Z,15.45
2022-09-10T07:24:28.608Z,15.49
2022-09-10T07:27:07.569Z,15.52
2022-09-10T07:29:38.618Z,15.49
2022-09-10T07:32:13.784Z,15.48
2022-09-10T07:34:43.764Z,15.47
2022-09-10T07:37:18.259Z,15.48
2022-09-10T07:39:49.526Z,15.49
2022-09-10T07:42:20.529Z,15.47
2022-09-10T07:44:52.194Z,15.45
2022-09-10T07:47:22.080Z,15.47
2022-09-10T07:49:52.531Z,15.46
2022-09-10T07:52:24.697Z,15.47
2022-09-10T07:54:57.164Z,15.50
2022-09-10T07:57:27.167Z,15.49
2022-09-10T07:59:57.851Z,15.58
2022-09-10T08:02:28.206Z,15.59
2022-09-10T08:05:04.278Z,15.57
2022-09-10T08:07:38.296Z,15.61
2022-09-10T08:10:10.965Z,15.62
2022-09-10T08:12:43.608Z,15.64
2022-09-10T08:15:14.591Z,15.64
2022-09-10T08:17:44.995Z,15.64
2022-09-10T08:20:15.101Z,15.65
2022-09-10T08:22:51.472Z,15.61
2022-09-10T08:25:21.570Z,15.61
2022-09-10T08:27:51.508Z,15.66
2022-09-10T08:30:21.053Z,15.69
2022-09-10T08:32:51.536Z,15.64
2022-09-10T08:35:24.135Z,15.69
2022-09-10T08:37:56.506Z,15.68
2022-09-10T08:40:26.448Z,15.71
2022-09-10T08:42:56.346Z,15.71
2022-09-10T08:45:30.485Z,15.73
2022-09-10T08:48:05.910Z,15.75
2022-09-10T08:50:40.984Z,15.77
2022-09-10T08:53:25.961Z,15.80
2022-09-10T08:55:59.152Z,15.82
2022-09-10T08:58:31.571Z,15.86
2022-09-10T09:01:05.913Z,15.88
2022-09-10T09:03:39.752Z,15.90
2022-09-10T09:06:12.984Z,15.95
2022-09-10T09:08:51.849Z,16.02
2022-09-10T09:11:35.091Z,16.04
2022-09-10T09:14:25.499Z,16.02
2022-09-10T09:17:09.279Z,16.07
2022-09-10T09:19:47.101Z,16.12
2022-09-10T09:22:21.503Z,16.15
2022-09-10T09:24:59.283Z,16.18
2022-09-10T09:27:31.707Z,16.25
2022-09-10T09:30:04.749Z,16.37
2022-09-10T09:32:42.532Z,16.47
2022-09-10T09:35:25.374Z,16.50
2022-09-10T09:38:13.860Z,16.50
2022-09-10T09:40:49.700Z,16.43
2022-09-10T09:43:27.324Z,16.47
2022-09-10T09:45:57.471Z,16.46
2022-09-10T09:48:38.709Z,16.41
2022-09-10T09:51:11.685Z,16.35
2022-09-10T09:53:46.372Z,16.33
2022-09-10T09:56:25.219Z,16.24
2022-09-10T09:58:55.099Z,16.20
2022-09-10T10:01:26.424Z,16.18
2022-09-10T10:03:59.022Z,16.15
2022-09-10T10:06:31.319Z,16.09
2022-09-10T10:09:06.211Z,16.02
2022-09-10T10:11:51.061Z,15.95
2022-09-10T10:14:29.393Z,15.86
2022-09-10T10:17:01.074Z,15.86
2022-09-10T10:19:36.820Z,15.87
2022-09-10T10:22:22.198Z,15.84
2022-09-10T10:24:54.143Z,15.86
2022-09-10T10:27:32.861Z,15.82
2022-09-10T10:30:07.325Z,15.85
2022-09-10T10:32:44.796Z,15.77
2022-09-10T10:35:32.738Z,15.80
2022-09-10T10:38:31.970Z,15.83
2022-09-10T10:41:32.951Z,15.77
2022-09-10T10:44:24.103Z,15.78
2022-09-10T10:47:00.579Z,15.78
2022-09-10T10:49:39.406Z,15.75
2022-09-10T10:52:15.318Z,15.75
2022-09-10T10:54:56.814Z,15.81
2022-09-10T10:57:33.306Z,15.84
2022-09-10T11:00:09.353Z,15.84
2022-09-10T11:02:43.492Z,15.89
2022-09-10T11:05:22.266Z,15.90
2022-09-10T11:07:52.796Z,15.89
2022-09-10T11:10:26.036Z,15.90
2022-09-10T11:12:59.904Z,15.94
2022-09-10T11:15:37.141Z,15.96
2022-09-10T11:18:12.072Z,15.97
2022-09-10T11:20:45.282Z,15.96
2022-09-10T11:23:25.745Z,15.96
2022-09-10T11:25:59.624Z,15.93
2022-09-10T11:28:32.165Z,15.92
2022-09-10T11:31:09.868Z,15.95
2022-09-10T11:33:46.188Z,16.03
2022-09-10T11:36:24.740Z,16.05
2022-09-10T11:39:04.511Z,16.17
2022-09-10T11:41:34.498Z,16.23
2022-09-10T11:44:10.652Z,16.30
2022-09-10T11:46:46.163Z,16.32
2022-09-10T11:49:21.746Z,16.39
2022-09-10T11:51:51.977Z,16.37
2022-09-10T11:54:25.570Z,16.36
2022-09-10T11:57:00.156Z,16.32
2022-09-10T11:59:46.427Z,16.33
2022-09-10T12:02:41.567Z,16.37
2022-09-10T12:05:20.906Z,16.48
2022-09-10T12:07:54.428Z,16.55
2022-09-10T12:10:31.681Z,16.61
2022-09-10T12:13:01.494Z,16.65
2022-09-10T12:15:34.431Z,16.67
2022-09-10T12:18:11.213Z,16.66
2022-09-10T12:20:44.810Z,16.63
2022-09-10T12:23:18.720Z,16.67
2022-09-10T12:25:48.323Z,16.74
2022-09-10T12:28:56.385Z,16.82
2022-09-10T12:31:27.607Z,16.87
2022-09-10T12:34:21.379Z,16.92
2022-09-10T12:37:22.031Z,16.99
2022-09-10T12:39:52.255Z,17.02
2022-09-10T12:42:36.804Z,17.02
2022-09-10T12:45:06.888Z,17.09
2022-09-10T12:47:57.554Z,17.10
2022-09-10T12:50:38.575Z,17.16
2022-09-10T12:53:33.175Z,17.18
2022-09-10T12:56:04.514Z,17.23
2022-09-10T12:58:47.948Z,17.25
2022-09-10T13:01:24.158Z,17.26
2022-09-10T13:03:56.508Z,17.24
2022-09-10T13:06:42.703Z,17.28
2022-09-10T13:09:20.114Z,17.31
2022-09-10T13:11:52.300Z,17.22
2022-09-10T13:14:23.933Z,17.24
2022-09-10T13:16:55.371Z,17.25
2022-09-10T13:19:53.387Z,17.23
2022-09-10T13:23:04.401Z,17.24
2022-09-10T13:25:42.877Z,17.25
2022-09-10T13:28:45.133Z,17.24
2022-09-10T13:31:21.059Z,17.21
2022-09-10T13:34:02.937Z,17.20
2022-09-10T13:36:35.729Z,17.15
2022-09-10T13:39:20.147Z,17.12
2022-09-10T13:42:18.541Z,17.14
2022-09-10T13:45:17.198Z,17.14
2022-09-10T13:47:50.088Z,17.11
2022-09-10T13:50:22.887Z,17.11
2022-09-10T13:52:55.676Z,17.11
2022-09-10T13:55:29.766Z,17.11
2022-09-10T13:58:03.507Z,17.09
2022-09-10T14:00:37.231Z,17.06
2022-09-10T14:03:16.963Z,17.04
2022-09-10T14:05:50.076Z,17.02
2022-09-10T14:08:23.139Z,16.95
2022-09-10T14:10:57.304Z,16.89
2022-09-10T14:13:32.729Z,16.91
2022-09-10T14:16:04.580Z,16.89
2022-09-10T14:18:40.342Z,16.89
2022-09-10T14:21:09.973Z,16.84
2022-09-10T14:23:41.014Z,16.87
2022-09-10T14:26:15.367Z,16.88
2022-09-10T14:28:58.890Z,16.89
2022-09-10T14:31:35.153Z,16.95
2022-09-10T14:34:33.377Z,16.95
2022-09-10T14:37:03.556Z,16.95
2022-09-10T14:39:35.481Z,17.00
2022-09-10T14:42:13.869Z,17.03
2022-09-10T14:44:46.228Z,17.03
2022-09-10T14:47:23.618Z,17.05
2022-09-10T14:49:53.299Z,17.08
2022-09-10T14:52:23.476Z,17.08
2022-09-10T14:54:53.035Z,17.07
2022-09-10T14:57:23.239Z,17.06
2022-09-10T14:59:57.501Z,17.05
2022-09-10T15:02:29.058Z,17.08
2022-09-10T15:04:58.648Z,17.05
2022-09-10T15:07:28.588Z,17.07
2022-09-10T15:09:58.137Z,17.07
2022-09-10T15:12:29.198Z,17.09
2022-09-10T15:15:01.550Z,17.10
2022-09-10T15:17:31.096Z,17.11
2022-09-10T15:20:01.593Z,17.10
2022-09-10T15:22:32.831Z,17.11
2022-09-10T15:25:11.183Z,17.14
2022-09-10T15:27:41.811Z,17.16
2022-09-10T15:30:14.315Z,17.19
2022-09-10T15:32:45.914Z,17.22
2022-09-10T15:35:15.560Z,17.23
2022-09-10T15:37:45.128Z,17.26
2022-09-10T15:40:14.732Z,17.27
2022-09-10T15:42:44.314Z,17.29
2022-09-10T15:45:16.656Z,17.31
2022-09-10T15:47:46.200Z,17.30
2022-09-10T15:50:16.247Z,17.31
2022-09-10T15:52:45.980Z,17.32
2022-09-10T15:55:16.153Z,17.34
2022-09-10T15:57:45.663Z,17.36
2022-09-10T16:00:18.658Z,17.38
2022-09-10T16:02:53.065Z,17.38
2022-09-10T16:05:23.840Z,17.39
2022-09-10T16:07:53.415Z,17.39
2022-09-10T16:10:23.227Z,17.41
2022-09-10T16:12:53.335Z,17.39
2022-09-10T16:15:26.103Z,17.38
2022-09-10T16:17:56.379Z,17.38
2022-09-10T16:20:26.607Z,17.38
2022-09-10T16:22:58.275Z,17.37
2022-09-10T16:25:29.246Z,17.39
2022-09-10T16:27:59.103Z,17.37
2022-09-10T16:30:31.672Z,17.38
2022-09-10T16:33:01.267Z,17.37
2022-09-10T16:35:30.833Z,17.34
2022-09-10T16:38:01.115Z,17.37
2022-09-10T16:40:30.755Z,17.34
2022-09-10T16:43:00.344Z,17.34
2022-09-10T16:45:32.878Z,17.33
2022-09-10T16:48:04.396Z,17.31
2022-09-10T16:50:35.305Z,17.32
2022-09-10T16:53:08.978Z,17.32
2022-09-10T16:55:41.017Z,17.29
2022-09-10T16:58:10.704Z,17.27
2022-09-10T17:04:29.283Z,17.24
2022-09-10T17:06:59.183Z,17.25
2022-09-10T17:09:28.941Z,17.24
2022-09-10T17:11:58.461Z,17.23
2022-09-10T17:14:28.251Z,17.21
2022-09-10T17:16:58.594Z,17.11
2022-09-10T17:19:30.855Z,17.09
2022-09-10T17:22:00.489Z,17.05
2022-09-10T17:24:30.011Z,17.08
2022-09-10T17:26:59.679Z,17.09
2022-09-10T17:29:29.931Z,17.08
2022-09-10T17:31:59.932Z,17.05
2022-09-10T17:34:33.807Z,17.05
2022-09-10T17:37:03.418Z,17.04
2022-09-10T17:39:33.125Z,17.02
2022-09-10T17:42:02.682Z,17.01
2022-09-10T17:44:32.232Z,17.00
2022-09-10T17:47:01.780Z,16.99
2022-09-10T17:49:33.971Z,16.99
2022-09-10T17:52:04.614Z,16.98
2022-09-10T17:54:34.470Z,16.99
2022-09-10T17:57:04.137Z,16.96
2022-09-10T17:59:35.205Z,16.96
2022-09-10T18:02:05.133Z,16.96
2022-09-10T18:04:37.448Z,16.95
2022-09-10T18:07:07.103Z,16.95
2022-09-10T18:09:36.994Z,16.94
2022-09-10T18:12:06.860Z,16.95
2022-09-10T18:14:37.316Z,16.96
2022-09-10T18:17:07.179Z,16.94
2022-09-10T18:19:39.293Z,16.93
2022-09-10T18:22:08.859Z,16.98
2022-09-10T18:24:39.017Z,16.93
2022-09-10T18:27:08.595Z,16.97
2022-09-10T18:29:41.402Z,16.96
2022-09-10T18:32:11.051Z,16.95
2022-09-10T18:34:43.327Z,16.94
2022-09-10T18:37:13.820Z,16.94
2022-09-10T18:39:43.475Z,16.94
2022-09-10T18:42:13.784Z,16.95
2022-09-10T18:44:43.461Z,16.96
2022-09-10T18:47:34.303Z,16.97
2022-09-10T18:50:05.237Z,16.96
2022-09-10T18:52:35.814Z,16.96
2022-09-10T18:55:05.489Z,16.95
2022-09-10T18:57:35.050Z,16.95
2022-09-10T19:00:05.186Z,16.95
2022-09-10T19:02:34.819Z,16.94
2022-09-10T19:05:11.592Z,16.93
2022-09-10T19:07:41.783Z,16.93
2022-09-10T19:10:11.508Z,16.93
2022-09-10T19:12:42.059Z,16.95
2022-09-10T19:15:12.788Z,16.95
2022-09-10T19:17:42.366Z,16.97
2022-09-10T19:20:14.619Z,16.94
2022-09-10T19:22:44.220Z,16.92
2022-09-10T19:25:14.161Z,16.91
2022-09-10T19:27:45.158Z,16.91
2022-09-10T19:30:15.586Z,16.92
2022-09-10T19:32:45.115Z,16.92
2022-09-10T19:35:17.524Z,16.94
2022-09-10T19:37:48.205Z,16.94
2022-09-10T19:40:18.004Z,16.88
2022-09-10T19:42:47.557Z,16.85
2022-09-10T19:45:17.197Z,16.84
2022-09-10T19:47:47.064Z,16.83
2022-09-10T19:50:22.774Z,16.87
2022-09-10T19:52:53.667Z,16.81
2022-09-10T19:55:23.634Z,16.79
2022-09-10T19:57:54.187Z,16.77
2022-09-10T20:00:45.352Z,16.77
2022-09-10T20:03:13.737Z,16.76
2022-09-10T20:05:46.205Z,16.77
2022-09-10T20:08:15.787Z,16.74
2022-09-10T20:10:51.925Z,16.72
2022-09-10T20:13:21.614Z,16.70
2022-09-10T20:15:51.387Z,16.66
2022-09-10T20:18:21.209Z,16.63
2022-09-10T20:20:53.621Z,16.62
2022-09-10T20:23:23.244Z,16.60
2022-09-10T20:25:52.751Z,16.58
2022-09-10T20:28:22.266Z,16.55
2022-09-10T20:30:52.208Z,16.53
2022-09-10T20:33:22.341Z,16.53
2022-09-10T20:35:54.530Z,16.50
2022-09-10T20:38:24.119Z,16.47
2022-09-10T20:40:53.627Z,16.45
2022-09-10T20:43:23.229Z,16.43
2022-09-10T20:45:52.737Z,16.42
2022-09-10T20:48:22.283Z,16.42
2022-09-10T20:50:59.155Z,16.41
2022-09-10T20:53:28.979Z,16.41
2022-09-10T20:56:06.373Z,16.39
2022-09-10T20:58:37.318Z,16.38
2022-09-10T21:01:11.563Z,16.37
2022-09-10T21:03:42.006Z,16.35
2022-09-10T21:06:15.545Z,16.34
2022-09-10T21:08:45.484Z,16.33
2022-09-10T21:11:16.045Z,16.33
2022-09-10T21:13:47.504Z,16.33
2022-09-10T21:16:19.821Z,16.29
2022-09-10T21:18:54.383Z,16.28
2022-09-10T21:21:28.460Z,16.27
2022-09-10T21:23:59.591Z,16.28
2022-09-10T21:26:30.571Z,16.25
2022-09-10T21:29:02.160Z,16.26
2022-09-10T21:31:32.841Z,16.26
2022-09-10T21:34:03.774Z,16.25
2022-09-10T21:36:37.425Z,16.25
2022-09-10T21:39:09.818Z,16.22
2022-09-10T21:41:41.028Z,16.23
2022-09-10T21:44:14.233Z,16.23
2022-09-10T21:46:44.491Z,16.22
2022-09-10T21:49:14.122Z,16.23
2022-09-10T21:51:46.503Z,16.22
2022-09-10T21:54:18.686Z,16.20
2022-09-10T21:56:48.305Z,16.18
2022-09-10T21:59:18.180Z,16.18
2022-09-10T22:01:49.142Z,16.17
2022-09-10T22:04:22.848Z,16.17
2022-09-10T22:06:57.487Z,16.17
2022-09-10T22:09:27.085Z,16.16
2022-09-10T22:11:59.168Z,16.16
2022-09-10T22:14:28.977Z,16.12
2022-09-10T22:17:00.236Z,16.10
2022-09-10T22:19:30.000Z,16.07
2022-09-10T22:22:02.654Z,16.04
2022-09-10T22:24:32.201Z,16.03
2022-09-10T22:27:02.332Z,16.01
2022-09-10T22:29:31.920Z,15.98
2022-09-10T22:32:01.449Z,15.95
2022-09-10T22:34:30.972Z,15.93
2022-09-10T22:37:03.296Z,15.91
2022-09-10T22:39:36.806Z,15.89
2022-09-10T22:42:07.587Z,15.87
2022-09-10T22:44:37.252Z,15.85
2022-09-10T22:47:08.044Z,15.82
2022-09-10T22:49:37.614Z,15.80
2022-09-10T22:52:09.799Z,15.77
2022-09-10T22:54:39.433Z,15.74
2022-09-10T22:57:08.944Z,15.73
2022-09-10T22:59:38.487Z,15.69
2022-09-10T23:02:08.043Z,15.67
2022-09-10T23:04:37.607Z,15.63
2022-09-10T23:07:09.841Z,15.61
2022-09-10T23:09:39.360Z,15.57
2022-09-10T23:12:09.344Z,15.55
2022-09-10T23:14:39.314Z,15.54
2022-09-10T23:17:09.060Z,15.50
2022-09-10T23:19:38.650Z,15.47
2022-09-10T23:22:12.868Z,15.45
2022-09-10T23:24:42.401Z,15.42
2022-09-10T23:27:13.429Z,15.37
2022-09-10T23:29:43.158Z,15.39
2022-09-10T23:32:12.712Z,15.33
2022-09-10T23:34:42.905Z,15.29
2022-09-10T23:37:15.244Z,15.27
2022-09-10T23:39:44.839Z,15.26
2022-09-10T23:42:14.757Z,15.23
2022-09-10T23:44:44.248Z,15.19
2022-09-10T23:47:13.774Z,15.19
2022-09-10T23:49:43.952Z,15.15
2022-09-10T23:52:16.084Z,15.13
2022-09-10T23:54:45.631Z,15.13
2022-09-10T23:57:15.205Z,15.08
2022-09-10T23:59:44.816Z,15.06
